Clara — A8ZE5 — position and weather

sailwx.info

Track history (hours):
 
Tides and Currents Weather Stations Pressure Air Temp Water Temp Dewpoint Dewpoint Depression Visibility Wind Speed Wind Dir Waves Ship Positions

Clara

Last reported at 2018-Jan-12 14:58 UTC. Time now 2018-Jan-19 09:48 UTC.
Position N 36°58' W 076°25'.

Length 225 m; draft 7.5 m.

Type: Cargo ship. MMSI: 636092248.

Date/timePositionNaut miles runAvg speedWind from/ knotsBaromVisibWave heightAir tempDewpointWater temp
2018-Jan-12 14:58N 36°58' W 076°25'0 0.0
2018-Jan-12 14:25N 36°58' W 076°25'0 0.0
2018-Jan-12 12:49N 36°58' W 076°25'0 0.0
2018-Jan-12 12:19N 36°58' W 076°25'0 0.0
2018-Jan-12 11:49N 36°58' W 076°25'0 0.0
2018-Jan-12 10:55N 36°58' W 076°25'0 0.0
2018-Jan-12 10:01N 36°58' W 076°25'0 0.0
2018-Jan-12 09:01N 36°58' W 076°25'0 0.0
2018-Jan-11 19:19N 36°58' W 076°25'0 0.0
2018-Jan-11 18:31N 36°58' W 076°25'0 0.0
2018-Jan-11 06:21N 36°58' W 076°25'0 0.0
2018-Jan-11 05:57N 36°58' W 076°25'0 0.0
2018-Jan-11 04:24N 36°58' W 076°25'0 0.0
2018-Jan-10 12:00N 36°58' W 076°25'0 0.0
2018-Jan-10 11:12N 36°58' W 076°25'0 0.0
2018-Jan-10 10:30N 36°58' W 076°25'0 0.0
2018-Jan-10 09:28N 36°58' W 076°25'0 0.0
2018-Jan-10 09:00N 36°58' W 076°25'0 0.0
2018-Jan-10 08:30N 36°58' W 076°25'0 0.0
2018-Jan-10 08:00N 36°58' W 076°25'1 2.6
2018-Jan-10 07:30N 36°57' W 076°24'5 9.4
2018-Jan-10 07:00N 36°59' W 076°19'713.2
2018-Jan-10 06:30N 36°59' W 076°10'713.6
2018-Jan-10 06:00N 36°58' W 076°02'611.9
2018-Jan-10 05:30N 37°04' W 076°05'813.0
2018-Jan-10 04:55N 37°10' W 076°09'5 0.3
2018-Jan-09 12:36N 37°12' W 076°03'1 0.1
2018-Jan-08 14:41N 37°13' W 076°04'5 7.5
2018-Jan-08 14:02N 37°09' W 076°09'012.7
2018-Jan-08 14:00N 37°09' W 076°09'612.6
2018-Jan-08 13:30N 37°03' W 076°05'612.1
2018-Jan-08 13:00N 36°59' W 076°00'4 8.4
2018-Jan-08 12:30N 36°56' W 075°56'4 8.6
2018-Jan-08 12:00N 36°53' W 075°52'4 8.9
2018-Jan-08 11:30N 36°51' W 075°48'  
Track history (hours):
 
Tides and Currents Weather Stations Pressure Air Temp Water Temp Dewpoint Dewpoint Depression Visibility Wind Speed Wind Dir Waves Ship Positions

Clara

Last reported at 2018-Jan-12 14:58 UTC. Time now 2018-Jan-19 09:48 UTC.
Position N 36°58' W 076°25'.

Length 225 m; draft 7.5 m.

Type: Cargo ship. MMSI: 636092248.

Date/timePositionNaut miles runAvg speedWind from/ knotsBaromVisibWave heightAir tempDewpointWater temp
2018-Jan-12 14:58N 36°58' W 076°25'0 0.0
2018-Jan-12 14:25N 36°58' W 076°25'0 0.0
2018-Jan-12 12:49N 36°58' W 076°25'0 0.0
2018-Jan-12 12:19N 36°58' W 076°25'0 0.0
2018-Jan-12 11:49N 36°58' W 076°25'0 0.0
2018-Jan-12 10:55N 36°58' W 076°25'0 0.0
2018-Jan-12 10:01N 36°58' W 076°25'0 0.0
2018-Jan-12 09:01N 36°58' W 076°25'0 0.0
2018-Jan-11 19:19N 36°58' W 076°25'0 0.0
2018-Jan-11 18:31N 36°58' W 076°25'0 0.0
2018-Jan-11 06:21N 36°58' W 076°25'0 0.0
2018-Jan-11 05:57N 36°58' W 076°25'0 0.0
2018-Jan-11 04:24N 36°58' W 076°25'0 0.0
2018-Jan-10 12:00N 36°58' W 076°25'0 0.0
2018-Jan-10 11:12N 36°58' W 076°25'0 0.0
2018-Jan-10 10:30N 36°58' W 076°25'0 0.0
2018-Jan-10 09:28N 36°58' W 076°25'0 0.0
2018-Jan-10 09:00N 36°58' W 076°25'0 0.0
2018-Jan-10 08:30N 36°58' W 076°25'0 0.0
2018-Jan-10 08:00N 36°58' W 076°25'1 2.6
2018-Jan-10 07:30N 36°57' W 076°24'5 9.4
2018-Jan-10 07:00N 36°59' W 076°19'713.2
2018-Jan-10 06:30N 36°59' W 076°10'713.6
2018-Jan-10 06:00N 36°58' W 076°02'611.9
2018-Jan-10 05:30N 37°04' W 076°05'813.0
2018-Jan-10 04:55N 37°10' W 076°09'5 0.3
2018-Jan-09 12:36N 37°12' W 076°03'1 0.1
2018-Jan-08 14:41N 37°13' W 076°04'5 7.5
2018-Jan-08 14:02N 37°09' W 076°09'012.7
2018-Jan-08 14:00N 37°09' W 076°09'612.6
2018-Jan-08 13:30N 37°03' W 076°05'612.1
2018-Jan-08 13:00N 36°59' W 076°00'4 8.4
2018-Jan-08 12:30N 36°56' W 075°56'4 8.6
2018-Jan-08 12:00N 36°53' W 075°52'4 8.9
2018-Jan-08 11:30N 36°51' W 075°48'  

Dump ship's entire track history